createdAt,value
2017-12-11T00:00:48.611Z,6.57
2017-12-11T00:03:16.208Z,6.30
2017-12-11T00:05:45.167Z,7.18
2017-12-11T00:08:13.881Z,5.50
2017-12-11T00:10:41.561Z,4.57
2017-12-11T00:13:09.180Z,5.68
2017-12-11T00:15:36.870Z,5.30
2017-12-11T00:18:04.437Z,5.10
2017-12-11T00:20:32.027Z,4.87
2017-12-11T00:22:59.688Z,5.70
2017-12-11T00:25:27.248Z,5.40
2017-12-11T00:27:55.947Z,5.37
2017-12-11T00:30:23.514Z,6.40
2017-12-11T00:32:51.120Z,7.28
2017-12-11T00:35:18.768Z,5.10
2017-12-11T00:37:46.450Z,5.40
2017-12-11T00:40:14.307Z,5.10
2017-12-11T00:42:41.908Z,5.20
2017-12-11T00:45:09.540Z,3.87
2017-12-11T00:47:37.178Z,4.15
2017-12-11T00:50:04.732Z,4.65
2017-12-11T00:52:32.322Z,4.25
2017-12-11T00:54:59.908Z,3.97
2017-12-11T00:57:28.316Z,4.25
2017-12-11T00:59:56.589Z,4.47
2017-12-11T01:02:26.007Z,4.75
2017-12-11T01:04:53.687Z,4.30
2017-12-11T01:07:21.351Z,4.87
2017-12-11T01:09:49.061Z,4.72
2017-12-11T01:12:17.402Z,5.00
2017-12-11T01:14:45.247Z,3.92
2017-12-11T01:17:12.856Z,4.60
2017-12-11T01:19:40.428Z,4.55
2017-12-11T01:22:08.041Z,4.60
2017-12-11T01:24:35.632Z,4.90
2017-12-11T01:27:03.251Z,3.62
2017-12-11T01:29:30.979Z,3.67
2017-12-11T01:31:59.457Z,4.95
2017-12-11T01:34:27.056Z,4.25
2017-12-11T01:36:54.648Z,4.40
2017-12-11T01:39:23.229Z,3.92
2017-12-11T01:41:51.003Z,3.83
2017-12-11T01:44:18.846Z,3.80
2017-12-11T01:46:46.708Z,3.80
2017-12-11T01:49:14.343Z,3.75
2017-12-11T01:51:41.936Z,3.83
2017-12-11T01:54:09.669Z,3.60
2017-12-11T01:56:37.316Z,3.67
2017-12-11T01:59:05.287Z,4.40
2017-12-11T02:01:33.687Z,4.03
2017-12-11T02:04:01.324Z,3.67
2017-12-11T02:06:29.649Z,4.80
2017-12-11T02:08:57.253Z,3.42
2017-12-11T02:11:24.839Z,3.70
2017-12-11T02:13:54.432Z,4.37
2017-12-11T02:16:22.191Z,3.45
2017-12-11T02:18:50.565Z,3.90
2017-12-11T02:21:18.968Z,3.47
2017-12-11T02:23:46.612Z,3.65
2017-12-11T02:26:14.251Z,3.72
2017-12-11T02:28:45.079Z,4.40
2017-12-11T02:31:12.719Z,3.80
2017-12-11T02:33:41.674Z,3.50
2017-12-11T02:36:09.467Z,3.72
2017-12-11T02:38:39.349Z,3.10
2017-12-11T02:41:06.920Z,3.65
2017-12-11T02:43:34.600Z,3.30
2017-12-11T02:46:04.363Z,3.53
2017-12-11T02:48:32.773Z,3.78
2017-12-11T02:51:00.379Z,3.80
2017-12-11T02:53:28.881Z,3.55
2017-12-11T02:55:56.475Z,3.00
2017-12-11T02:58:25.211Z,3.10
2017-12-11T03:03:28.476Z,3.65
2017-12-11T03:05:56.657Z,3.10
2017-12-11T03:08:25.128Z,3.12
2017-12-11T03:10:54.180Z,2.92
2017-12-11T03:13:22.014Z,3.05
2017-12-11T03:15:49.624Z,3.15
2017-12-11T03:18:17.228Z,3.37
2017-12-11T03:20:44.864Z,2.78
2017-12-11T03:23:12.504Z,3.15
2017-12-11T03:25:40.123Z,2.53
2017-12-11T03:28:07.684Z,2.80
2017-12-11T03:30:35.311Z,2.62
2017-12-11T03:33:02.930Z,2.90
2017-12-11T03:35:30.931Z,3.08
2017-12-11T03:37:58.545Z,2.80
2017-12-11T03:40:27.092Z,3.12
2017-12-11T03:42:54.685Z,2.80
2017-12-11T03:45:27.089Z,2.90
2017-12-11T03:47:56.032Z,3.10
2017-12-11T03:50:23.617Z,3.00
2017-12-11T03:52:51.235Z,2.92
2017-12-11T03:55:18.849Z,2.85
2017-12-11T03:57:46.480Z,2.75
2017-12-11T04:00:14.108Z,2.70
2017-12-11T04:02:41.750Z,2.30
2017-12-11T04:05:09.355Z,2.47
2017-12-11T04:07:36.869Z,2.33
2017-12-11T04:10:04.508Z,2.25
2017-12-11T04:12:32.056Z,2.00
2017-12-11T04:15:04.835Z,2.17
2017-12-11T04:17:32.839Z,2.25
2017-12-11T04:20:00.404Z,2.30
2017-12-11T04:22:28.003Z,2.35
2017-12-11T04:24:57.434Z,2.40
2017-12-11T04:27:25.966Z,2.28
2017-12-11T04:29:53.556Z,1.83
2017-12-11T04:32:21.167Z,2.10
2017-12-11T04:34:48.769Z,2.00
2017-12-11T04:37:16.396Z,1.80
2017-12-11T04:39:43.959Z,1.85
2017-12-11T04:42:16.549Z,1.90
2017-12-11T04:44:44.918Z,1.90
2017-12-11T04:47:13.284Z,2.17
2017-12-11T04:49:44.497Z,1.52
2017-12-11T04:52:12.088Z,1.80
2017-12-11T04:54:39.692Z,1.42
2017-12-11T04:57:07.295Z,1.75
2017-12-11T04:59:41.784Z,2.78
2017-12-11T05:02:09.455Z,2.03
2017-12-11T05:04:39.163Z,1.85
2017-12-11T05:07:14.818Z,3.00
2017-12-11T05:09:42.495Z,6.15
2017-12-11T05:12:11.591Z,3.80
2017-12-11T05:14:39.196Z,3.33
2017-12-11T05:17:07.438Z,3.15
2017-12-11T05:19:35.084Z,2.70
2017-12-11T05:22:03.615Z,6.07
2017-12-11T05:24:32.008Z,4.40
2017-12-11T05:27:00.628Z,3.65
2017-12-11T05:29:31.468Z,3.30
2017-12-11T05:31:59.048Z,2.72
2017-12-11T05:34:26.628Z,5.00
2017-12-11T05:36:54.204Z,6.57
2017-12-11T05:39:23.561Z,6.35
2017-12-11T05:41:51.191Z,7.35
2017-12-11T05:44:20.064Z,4.00
2017-12-11T05:46:47.702Z,4.43
2017-12-11T05:49:15.299Z,7.75
2017-12-11T05:51:43.922Z,5.25
2017-12-11T05:54:11.550Z,3.55
2017-12-11T05:56:39.148Z,4.45
2017-12-11T05:59:08.320Z,9.35
2017-12-11T06:01:35.950Z,6.55
2017-12-11T06:04:03.549Z,4.45
2017-12-11T06:06:31.108Z,3.70
2017-12-11T06:08:58.747Z,6.37
2017-12-11T06:11:27.358Z,5.18
2017-12-11T06:13:54.921Z,7.80
2017-12-11T06:16:23.291Z,1.60
2017-12-11T06:18:50.884Z,4.60
2017-12-11T06:21:18.510Z,6.90
2017-12-11T06:23:53.303Z,8.43
2017-12-11T06:26:21.861Z,8.55
2017-12-11T06:28:50.311Z,5.43
2017-12-11T06:31:17.870Z,10.48
2017-12-11T06:33:45.432Z,3.22
2017-12-11T06:36:13.035Z,2.53
2017-12-11T06:38:42.593Z,8.90
2017-12-11T06:41:10.973Z,16.05
2017-12-11T06:43:38.558Z,7.15
2017-12-11T06:46:10.895Z,3.05
2017-12-11T06:48:38.468Z,2.70
2017-12-11T06:51:07.588Z,2.80
2017-12-11T06:53:35.955Z,2.42
2017-12-11T06:56:08.339Z,2.10
2017-12-11T06:58:37.583Z,2.20
2017-12-11T07:01:05.157Z,1.60
2017-12-11T07:03:32.720Z,1.90
2017-12-11T07:06:00.283Z,1.80
2017-12-11T07:08:30.873Z,1.80
2017-12-11T07:11:02.563Z,1.65
2017-12-11T07:13:30.163Z,1.95
2017-12-11T07:16:00.720Z,1.80
2017-12-11T07:18:29.082Z,1.75
2017-12-11T07:20:56.672Z,2.70
2017-12-11T07:23:24.270Z,2.35
2017-12-11T07:25:54.664Z,2.42
2017-12-11T07:28:22.286Z,2.95
2017-12-11T07:30:53.194Z,3.30
2017-12-11T07:33:21.715Z,4.68
2017-12-11T07:35:49.311Z,2.10
2017-12-11T07:38:18.376Z,3.97
2017-12-11T07:40:47.965Z,2.30
2017-12-11T07:43:15.568Z,2.10
2017-12-11T07:45:44.608Z,2.00
2017-12-11T07:48:12.672Z,2.45
2017-12-11T07:50:43.827Z,2.90
2017-12-11T07:53:12.411Z,2.25
2017-12-11T07:55:43.903Z,2.30
2017-12-11T07:58:12.139Z,2.40
2017-12-11T08:00:40.683Z,2.05
2017-12-11T08:03:08.256Z,2.50
2017-12-11T08:05:36.759Z,2.37
2017-12-11T08:08:04.355Z,2.42
2017-12-11T08:10:31.943Z,2.55
2017-12-11T08:13:03.098Z,2.45
2017-12-11T08:15:30.695Z,3.15
2017-12-11T08:17:58.289Z,3.15
2017-12-11T08:20:25.845Z,3.12
2017-12-11T08:22:56.383Z,2.67
2017-12-11T08:25:24.788Z,2.72
2017-12-11T08:27:52.579Z,2.70
2017-12-11T08:30:20.175Z,2.58
2017-12-11T08:32:48.580Z,2.72
2017-12-11T08:35:17.076Z,3.03
2017-12-11T08:37:47.120Z,3.45
2017-12-11T08:40:15.219Z,2.92
2017-12-11T08:42:42.851Z,3.28
2017-12-11T08:45:11.354Z,3.30
2017-12-11T08:47:39.761Z,3.37
2017-12-11T08:50:07.365Z,3.40
2017-12-11T08:52:34.953Z,2.95
2017-12-11T08:55:04.708Z,3.20
2017-12-11T08:57:34.113Z,3.20
2017-12-11T09:00:05.496Z,2.53
2017-12-11T09:02:33.091Z,2.90
2017-12-11T09:05:02.236Z,3.15
2017-12-11T09:07:31.041Z,2.92
2017-12-11T09:10:02.251Z,3.40
2017-12-11T09:12:29.838Z,3.33
2017-12-11T09:14:58.296Z,3.75
2017-12-11T09:17:25.838Z,3.40
2017-12-11T09:19:57.505Z,3.75
2017-12-11T09:22:25.818Z,3.42
2017-12-11T09:24:53.377Z,3.22
2017-12-11T09:27:20.964Z,4.00
2017-12-11T09:29:48.517Z,3.60
2017-12-11T09:32:19.150Z,2.92
2017-12-11T09:34:47.762Z,3.37
2017-12-11T09:37:17.064Z,3.35
2017-12-11T09:39:45.385Z,2.95
2017-12-11T09:42:14.244Z,2.85
2017-12-11T09:44:41.810Z,4.60
2017-12-11T09:47:11.439Z,3.75
2017-12-11T09:49:39.067Z,3.78
2017-12-11T09:52:09.539Z,3.12
2017-12-11T09:54:40.516Z,3.72
2017-12-11T09:57:09.262Z,3.05
2017-12-11T09:59:38.108Z,2.80
2017-12-11T10:02:07.083Z,2.83
2017-12-11T10:04:38.890Z,2.83
2017-12-11T10:07:09.722Z,3.22
2017-12-11T10:09:41.399Z,3.28
2017-12-11T10:12:12.021Z,2.33
2017-12-11T10:14:40.848Z,2.60
2017-12-11T10:17:11.388Z,3.20
2017-12-11T10:19:40.798Z,2.70
2017-12-11T10:22:12.143Z,3.17
2017-12-11T10:24:40.115Z,2.47
2017-12-11T10:27:07.924Z,2.60
2017-12-11T10:29:36.846Z,2.03
2017-12-11T10:32:04.642Z,2.50
2017-12-11T10:34:32.473Z,2.50
2017-12-11T10:37:00.092Z,2.58
2017-12-11T10:39:30.279Z,3.80
2017-12-11T10:41:58.401Z,2.35
2017-12-11T10:44:29.348Z,3.10
2017-12-11T10:46:57.839Z,3.25
2017-12-11T10:49:25.426Z,2.92
2017-12-11T10:51:53.068Z,3.97
2017-12-11T10:54:20.708Z,3.60
2017-12-11T10:56:48.304Z,2.83
2017-12-11T10:59:15.903Z,2.35
2017-12-11T11:01:43.488Z,2.80
2017-12-11T11:04:11.055Z,3.15
2017-12-11T11:06:38.647Z,3.40
2017-12-11T11:09:06.209Z,4.50
2017-12-11T11:11:33.811Z,4.25
2017-12-11T11:14:01.396Z,4.35
2017-12-11T11:16:28.989Z,3.50
2017-12-11T11:18:56.526Z,3.60
2017-12-11T11:21:24.111Z,3.00
2017-12-11T11:23:51.691Z,2.85
2017-12-11T11:26:23.221Z,3.37
2017-12-11T11:28:51.708Z,3.25
2017-12-11T11:31:20.698Z,2.20
2017-12-11T11:33:51.588Z,10.50
2017-12-11T11:36:22.533Z,3.60
2017-12-11T11:38:50.122Z,3.33
2017-12-11T11:41:25.641Z,6.82
2017-12-11T11:43:58.054Z,3.37
2017-12-11T11:46:25.638Z,4.18
2017-12-11T11:48:59.954Z,3.28
2017-12-11T11:51:28.611Z,4.90
2017-12-11T11:54:00.151Z,3.90
2017-12-11T11:56:28.999Z,3.80
2017-12-11T11:58:57.341Z,3.95
2017-12-11T12:01:24.991Z,3.75
2017-12-11T12:03:52.665Z,4.40
2017-12-11T12:06:20.272Z,4.50
2017-12-11T12:08:51.664Z,4.05
2017-12-11T12:11:19.282Z,4.35
2017-12-11T12:13:52.732Z,4.43
2017-12-11T12:16:22.262Z,4.93
2017-12-11T12:18:52.139Z,3.70
2017-12-11T12:21:19.743Z,5.60
2017-12-11T12:23:47.308Z,4.40
2017-12-11T12:26:15.646Z,4.85
2017-12-11T12:28:44.263Z,4.62
2017-12-11T12:31:13.773Z,5.15
2017-12-11T12:33:43.453Z,4.75
2017-12-11T12:36:11.047Z,4.60
2017-12-11T12:38:39.459Z,4.68
2017-12-11T12:41:09.688Z,4.68
2017-12-11T12:43:37.311Z,4.87
2017-12-11T12:46:04.956Z,5.72
2017-12-11T12:48:33.336Z,4.70
2017-12-11T12:51:00.933Z,6.18
2017-12-11T12:53:28.920Z,5.43
2017-12-11T12:55:57.449Z,5.70
2017-12-11T12:58:25.056Z,6.95
2017-12-11T13:00:54.972Z,8.40
2017-12-11T13:03:23.389Z,11.93
2017-12-11T13:05:52.932Z,11.02
2017-12-11T13:08:20.497Z,6.87
2017-12-11T13:10:48.113Z,9.93
2017-12-11T13:13:15.728Z,7.20
2017-12-11T13:15:43.319Z,7.70
2017-12-11T13:18:10.888Z,16.98
2017-12-11T13:20:38.447Z,6.35
2017-12-11T13:23:10.233Z,13.57
2017-12-11T13:25:43.055Z,21.23
2017-12-11T13:28:12.990Z,18.92
2017-12-11T13:30:40.554Z,18.55
2017-12-11T13:33:08.194Z,30.15
2017-12-11T13:35:35.820Z,27.35
2017-12-11T13:38:04.679Z,11.15
2017-12-11T13:40:33.092Z,8.48
2017-12-11T13:43:02.430Z,10.13
2017-12-11T13:45:33.687Z,8.40
2017-12-11T13:48:02.117Z,8.40
2017-12-11T13:50:29.789Z,8.60
2017-12-11T13:53:00.344Z,9.85
2017-12-11T13:55:29.121Z,9.95
2017-12-11T13:58:03.725Z,8.43
2017-12-11T14:00:33.670Z,8.38
2017-12-11T14:05:34.339Z,8.35
2017-12-11T14:08:02.861Z,7.57
2017-12-11T14:10:30.680Z,8.25
2017-12-11T14:13:07.520Z,6.68
2017-12-11T14:15:35.898Z,7.70
2017-12-11T14:18:06.844Z,6.95
2017-12-11T14:20:35.268Z,7.80
2017-12-11T14:23:05.461Z,7.78
2017-12-11T14:25:33.353Z,7.75
2017-12-11T14:28:01.035Z,7.35
2017-12-11T14:30:28.748Z,7.07
2017-12-11T14:32:58.946Z,6.15
2017-12-11T14:35:29.887Z,5.75
2017-12-11T14:37:58.533Z,6.45
2017-12-11T14:40:26.239Z,6.18
2017-12-11T14:42:57.179Z,6.18
2017-12-11T14:45:25.718Z,5.85
2017-12-11T14:47:53.382Z,6.20
2017-12-11T14:50:21.086Z,6.22
2017-12-11T14:52:51.569Z,6.05
2017-12-11T14:55:20.729Z,7.00
2017-12-11T14:57:50.580Z,8.10
2017-12-11T15:00:21.579Z,8.07
2017-12-11T15:02:51.430Z,10.10
2017-12-11T15:05:20.844Z,6.00
2017-12-11T15:07:48.546Z,5.80
2017-12-11T15:10:16.185Z,5.70
2017-12-11T15:12:44.823Z,13.38
2017-12-11T15:15:14.427Z,10.63
2017-12-11T15:17:42.032Z,15.23
2017-12-11T15:20:09.744Z,5.37
2017-12-11T15:22:38.449Z,5.12
2017-12-11T15:25:06.199Z,5.87
2017-12-11T15:27:33.855Z,6.20
2017-12-11T15:30:06.104Z,5.87
2017-12-11T15:32:34.555Z,6.28
2017-12-11T15:35:03.640Z,6.87
2017-12-11T15:37:33.341Z,6.57
2017-12-11T15:40:03.256Z,6.00
2017-12-11T15:45:07.973Z,6.20
2017-12-11T15:47:35.676Z,6.50
2017-12-11T15:50:05.404Z,5.28
2017-12-11T15:52:36.325Z,5.30
2017-12-11T15:55:04.358Z,5.82
2017-12-11T15:57:33.373Z,5.93
2017-12-11T16:00:02.026Z,5.50
2017-12-11T16:02:30.434Z,5.40
2017-12-11T16:04:59.325Z,5.60
2017-12-11T16:07:30.099Z,4.93
2017-12-11T16:10:01.618Z,5.68
2017-12-11T16:12:30.444Z,6.20
2017-12-11T16:14:59.874Z,6.50
2017-12-11T16:17:27.476Z,5.37
2017-12-11T16:19:55.200Z,6.20
2017-12-11T16:22:23.589Z,5.20
2017-12-11T16:24:52.148Z,5.95
2017-12-11T16:27:20.969Z,5.37
2017-12-11T16:29:51.301Z,5.37
2017-12-11T16:32:22.458Z,5.72
2017-12-11T16:34:56.489Z,7.25
2017-12-11T16:37:24.116Z,9.32
2017-12-11T16:39:55.040Z,5.55
2017-12-11T16:42:23.965Z,5.75
2017-12-11T16:44:53.720Z,6.40
2017-12-11T16:47:22.159Z,6.18
2017-12-11T16:49:58.217Z,6.47
2017-12-11T16:52:32.022Z,6.00
2017-12-11T16:55:00.892Z,5.07
2017-12-11T16:57:28.676Z,5.05
2017-12-11T16:59:56.306Z,5.93
2017-12-11T17:02:23.962Z,5.15
2017-12-11T17:04:51.628Z,5.50
2017-12-11T17:07:19.235Z,6.55
2017-12-11T17:09:47.157Z,6.18
2017-12-11T17:12:17.503Z,6.95
2017-12-11T17:14:45.583Z,5.80
2017-12-11T17:17:14.136Z,5.72
2017-12-11T17:19:41.980Z,4.95
2017-12-11T17:22:11.833Z,5.03
2017-12-11T17:24:40.553Z,6.15
2017-12-11T17:27:08.575Z,5.10
2017-12-11T17:29:38.918Z,4.30
2017-12-11T17:32:06.539Z,4.93
2017-12-11T17:34:34.179Z,3.78
2017-12-11T17:37:01.816Z,4.50
2017-12-11T17:39:30.980Z,5.47
2017-12-11T17:41:58.894Z,4.47
2017-12-11T17:44:27.163Z,4.60
2017-12-11T17:46:56.431Z,5.00
2017-12-11T17:49:24.811Z,4.03
2017-12-11T17:51:54.032Z,4.32
2017-12-11T17:54:37.063Z,4.93
2017-12-11T17:57:04.695Z,5.30
2017-12-11T17:59:33.841Z,5.05
2017-12-11T18:02:01.445Z,4.75
2017-12-11T18:04:29.248Z,4.25
2017-12-11T18:06:56.987Z,4.55
2017-12-11T18:09:25.392Z,4.97
2017-12-11T18:11:54.076Z,4.87
2017-12-11T18:14:22.846Z,5.57
2017-12-11T18:16:51.468Z,3.90
2017-12-11T18:19:23.710Z,4.75
2017-12-11T18:21:54.809Z,4.75
2017-12-11T18:24:23.823Z,3.80
2017-12-11T18:26:51.409Z,4.55
2017-12-11T18:29:20.081Z,4.30
2017-12-11T18:31:49.095Z,4.60
2017-12-11T18:34:17.788Z,4.95
2017-12-11T18:36:46.786Z,4.72
2017-12-11T18:39:17.189Z,4.20
2017-12-11T18:41:44.778Z,3.78
2017-12-11T18:44:12.476Z,3.83
2017-12-11T18:46:41.944Z,4.37
2017-12-11T18:49:09.551Z,4.05
2017-12-11T18:51:38.015Z,4.18
2017-12-11T18:54:05.647Z,3.95
2017-12-11T18:56:33.209Z,3.83
2017-12-11T18:59:07.937Z,5.05
2017-12-11T19:01:38.952Z,4.60
2017-12-11T19:04:06.687Z,4.47
2017-12-11T19:06:35.078Z,5.18
2017-12-11T19:09:05.368Z,5.55
2017-12-11T19:11:34.710Z,5.22
2017-12-11T19:14:03.973Z,5.72
2017-12-11T19:16:33.774Z,4.45
2017-12-11T19:19:02.511Z,4.00
2017-12-11T19:21:30.594Z,5.07
2017-12-11T19:23:58.513Z,5.50
2017-12-11T19:26:26.187Z,3.85
2017-12-11T19:28:54.326Z,4.60
2017-12-11T19:31:22.146Z,4.10
2017-12-11T19:33:50.291Z,3.85
2017-12-11T19:36:18.091Z,5.07
2017-12-11T19:38:46.106Z,4.57
2017-12-11T19:41:14.008Z,5.25
2017-12-11T19:43:42.199Z,3.90
2017-12-11T19:46:10.967Z,4.00
2017-12-11T19:48:42.834Z,4.12
2017-12-11T19:51:13.980Z,5.60
2017-12-11T19:53:42.380Z,5.37
2017-12-11T19:56:10.778Z,12.37
2017-12-11T19:58:39.500Z,5.75
2017-12-11T20:01:10.044Z,5.15
2017-12-11T20:03:40.094Z,5.15
2017-12-11T20:06:09.986Z,6.07
2017-12-11T20:08:37.984Z,6.43
2017-12-11T20:11:06.642Z,9.60
2017-12-11T20:13:34.540Z,5.40
2017-12-11T20:16:02.730Z,6.75
2017-12-11T20:18:31.000Z,5.70
2017-12-11T20:21:07.364Z,6.97
2017-12-11T20:23:37.569Z,19.35
2017-12-11T20:26:05.666Z,5.62
2017-12-11T20:28:33.866Z,6.72
2017-12-11T20:31:02.634Z,11.52
2017-12-11T20:33:30.688Z,16.12
2017-12-11T20:35:59.425Z,5.35
2017-12-11T20:38:27.459Z,9.55
2017-12-11T20:40:55.358Z,11.52
2017-12-11T20:43:24.213Z,12.70
2017-12-11T20:45:52.646Z,8.00
2017-12-11T20:48:21.108Z,14.00
2017-12-11T20:50:49.033Z,6.65
2017-12-11T20:53:17.085Z,6.05
2017-12-11T20:55:45.007Z,8.15
2017-12-11T20:58:12.950Z,17.58
2017-12-11T21:00:40.861Z,11.38
2017-12-11T21:03:08.886Z,5.50
2017-12-11T21:05:36.891Z,7.22
2017-12-11T21:08:04.737Z,6.07
2017-12-11T21:10:32.671Z,4.75
2017-12-11T21:13:00.553Z,4.90
2017-12-11T21:15:29.172Z,5.18
2017-12-11T21:17:57.205Z,5.18
2017-12-11T21:20:25.263Z,10.00
2017-12-11T21:22:54.484Z,7.45
2017-12-11T21:25:22.217Z,13.30
2017-12-11T21:27:49.827Z,10.95
2017-12-11T21:30:17.447Z,5.05
2017-12-11T21:32:45.064Z,5.60
2017-12-11T21:35:12.644Z,13.20
2017-12-11T21:37:40.295Z,9.98
2017-12-11T21:40:07.886Z,11.40
2017-12-11T21:42:35.477Z,33.33
2017-12-11T21:45:03.065Z,16.60
2017-12-11T21:47:30.685Z,6.25
2017-12-11T21:49:58.298Z,7.37
2017-12-11T21:52:25.935Z,16.45
2017-12-11T21:54:53.552Z,10.50
2017-12-11T21:57:21.235Z,12.05
2017-12-11T21:59:48.879Z,9.40
2017-12-11T22:02:16.469Z,33.65
2017-12-11T22:04:46.287Z,19.92
2017-12-11T22:07:13.915Z,14.27
2017-12-11T22:09:41.578Z,28.33
2017-12-11T22:12:09.172Z,10.75
2017-12-11T22:14:36.987Z,8.15
2017-12-11T22:17:05.419Z,12.90
2017-12-11T22:19:33.038Z,7.25
2017-12-11T22:22:00.724Z,12.18
2017-12-11T22:24:28.355Z,10.20
2017-12-11T22:26:56.101Z,7.18
2017-12-11T22:29:23.723Z,9.95
2017-12-11T22:31:52.629Z,9.70
2017-12-11T22:34:20.275Z,15.48
2017-12-11T22:36:47.907Z,7.97
2017-12-11T22:39:15.522Z,7.25
2017-12-11T22:41:43.144Z,6.18
2017-12-11T22:44:10.705Z,5.35
2017-12-11T22:46:38.303Z,5.72
2017-12-11T22:49:05.951Z,6.72
2017-12-11T22:51:33.542Z,34.15
2017-12-11T22:54:01.662Z,12.48
2017-12-11T22:56:29.215Z,10.35
2017-12-11T22:58:56.820Z,11.95
2017-12-11T23:01:24.464Z,7.55
2017-12-11T23:03:52.128Z,6.00
2017-12-11T23:06:19.721Z,10.32
2017-12-11T23:08:47.345Z,11.23
2017-12-11T23:11:14.915Z,12.48
2017-12-11T23:13:42.522Z,8.40
2017-12-11T23:16:10.111Z,9.45
2017-12-11T23:18:37.703Z,8.60
2017-12-11T23:21:05.299Z,17.02
2017-12-11T23:23:32.905Z,7.87
2017-12-11T23:26:00.499Z,8.88
2017-12-11T23:28:28.098Z,10.93
2017-12-11T23:30:55.666Z,10.85
2017-12-11T23:33:23.265Z,10.32
2017-12-11T23:35:50.847Z,18.70
2017-12-11T23:38:18.421Z,11.00
2017-12-11T23:40:46.028Z,13.60
2017-12-11T23:43:13.751Z,8.60
2017-12-11T23:45:42.160Z,8.43
2017-12-11T23:48:09.820Z,9.05
2017-12-11T23:50:37.442Z,10.15
2017-12-11T23:53:05.339Z,12.65
2017-12-11T23:55:33.730Z,11.15
2017-12-11T23:58:01.359Z,18.35
